sensor_id;sensor_type;location;lat;lon;timestamp;P1;P2;P0
72854;PMS7003;60991;51.278;22.550;2023-03-01T00:01:24;95.67;70.00;42.33
72854;PMS7003;60991;51.278;22.550;2023-03-01T00:02:56;91.75;70.50;42.00
72854;PMS7003;60991;51.278;22.550;2023-03-01T00:04:26;87.00;67.67;41.00
72854;PMS7003;60991;51.278;22.550;2023-03-01T00:05:57;81.75;59.00;41.25
72854;PMS7003;60991;51.278;22.550;2023-03-01T00:07:27;86.00;66.75;39.50
72854;PMS7003;60991;51.278;22.550;2023-03-01T00:08:57;87.00;65.67;39.33
72854;PMS7003;60991;51.278;22.550;2023-03-01T00:10:28;77.67;57.00;32.67
72854;PMS7003;60991;51.278;22.550;2023-03-01T00:11:58;85.00;64.33;40.00
72854;PMS7003;60991;51.278;22.550;2023-03-01T00:13:28;89.33;63.00;39.00
72854;PMS7003;60991;51.278;22.550;2023-03-01T00:14:58;80.50;63.25;37.25
72854;PMS7003;60991;51.278;22.550;2023-03-01T00:16:30;85.67;63.33;36.00
72854;PMS7003;60991;51.278;22.550;2023-03-01T00:18:01;82.25;62.00;36.50
72854;PMS7003;60991;51.278;22.550;2023-03-01T00:19:32;83.00;63.50;36.00
72854;PMS7003;60991;51.278;22.550;2023-03-01T00:21:02;79.67;58.00;36.00
72854;PMS7003;60991;51.278;22.550;2023-03-01T00:22:32;80.00;56.75;35.25
72854;PMS7003;60991;51.278;22.550;2023-03-01T00:24:03;82.00;60.00;36.25
72854;PMS7003;60991;51.278;22.550;2023-03-01T00:25:35;70.50;53.50;34.25
72854;PMS7003;60991;51.278;22.550;2023-03-01T00:27:11;76.50;59.00;34.00
72854;PMS7003;60991;51.278;22.550;2023-03-01T00:28:41;70.00;54.00;34.67
72854;PMS7003;60991;51.278;22.550;2023-03-01T00:30:12;60.25;48.50;23.25
72854;PMS7003;60991;51.278;22.550;2023-03-01T00:31:42;72.50;56.00;33.75
72854;PMS7003;60991;51.278;22.550;2023-03-01T00:33:13;75.33;56.33;34.00
72854;PMS7003;60991;51.278;22.550;2023-03-01T00:34:43;78.75;59.25;36.00
72854;PMS7003;60991;51.278;22.550;2023-03-01T00:36:14;75.00;60.67;37.00
72854;PMS7003;60991;51.278;22.550;2023-03-01T00:37:45;75.50;58.25;36.25
72854;PMS7003;60991;51.278;22.550;2023-03-01T00:39:15;75.00;56.33;39.00
72854;PMS7003;60991;51.278;22.550;2023-03-01T00:40:45;74.33;58.67;36.33
72854;PMS7003;60991;51.278;22.550;2023-03-01T00:42:16;70.67;57.33;34.00
72854;PMS7003;60991;51.278;22.550;2023-03-01T00:43:46;74.25;59.25;36.25
72854;PMS7003;60991;51.278;22.550;2023-03-01T00:45:16;81.00;62.33;36.67
72854;PMS7003;60991;51.278;22.550;2023-03-01T00:46:47;74.75;57.25;34.00
72854;PMS7003;60991;51.278;22.550;2023-03-01T00:48:20;74.75;60.00;38.75
72854;PMS7003;60991;51.278;22.550;2023-03-01T00:49:50;78.00;57.33;33.67
72854;PMS7003;60991;51.278;22.550;2023-03-01T00:51:22;84.00;61.33;35.67
72854;PMS7003;60991;51.278;22.550;2023-03-01T00:52:56;71.50;57.00;33.75
72854;PMS7003;60991;51.278;22.550;2023-03-01T00:54:26;75.25;57.00;34.75
72854;PMS7003;60991;51.278;22.550;2023-03-01T00:55:57;72.00;52.67;34.00
72854;PMS7003;60991;51.278;22.550;2023-03-01T00:57:27;58.25;51.00;33.50
72854;PMS7003;60991;51.278;22.550;2023-03-01T00:58:58;78.33;58.00;33.00
72854;PMS7003;60991;51.278;22.550;2023-03-01T01:00:28;66.00;50.33;33.00
72854;PMS7003;60991;51.278;22.550;2023-03-01T01:01:58;57.67;49.33;33.00
72854;PMS7003;60991;51.278;22.550;2023-03-01T01:03:28;64.33;55.00;33.00
72854;PMS7003;60991;51.278;22.550;2023-03-01T01:04:58;71.67;54.00;34.67
72854;PMS7003;60991;51.278;22.550;2023-03-01T01:06:30;80.00;56.75;34.00
72854;PMS7003;60991;51.278;22.550;2023-03-01T01:08:02;70.50;54.00;33.25
72854;PMS7003;60991;51.278;22.550;2023-03-01T01:09:32;48.33;39.00;22.00
72854;PMS7003;60991;51.278;22.550;2023-03-01T01:11:03;70.33;53.33;33.33
72854;PMS7003;60991;51.278;22.550;2023-03-01T01:12:33;68.00;51.00;30.00
72854;PMS7003;60991;51.278;22.550;2023-03-01T01:14:03;51.67;46.33;33.33
72854;PMS7003;60991;51.278;22.550;2023-03-01T01:15:34;52.75;45.00;28.00
72854;PMS7003;60991;51.278;22.550;2023-03-01T01:17:04;67.75;52.00;32.00
72854;PMS7003;60991;51.278;22.550;2023-03-01T01:18:35;68.33;54.00;32.00
72854;PMS7003;60991;51.278;22.550;2023-03-01T01:20:05;77.75;58.50;33.50
72854;PMS7003;60991;51.278;22.550;2023-03-01T01:21:36;66.50;49.50;31.00
72854;PMS7003;60991;51.278;22.550;2023-03-01T01:23:06;67.00;50.50;33.00
72854;PMS7003;60991;51.278;22.550;2023-03-01T01:24:36;66.33;51.67;33.00
72854;PMS7003;60991;51.278;22.550;2023-03-01T01:26:08;58.50;49.50;32.50
72854;PMS7003;60991;51.278;22.550;2023-03-01T01:27:41;60.00;49.00;31.00
72854;PMS7003;60991;51.278;22.550;2023-03-01T01:29:11;64.67;48.67;30.33
72854;PMS7003;60991;51.278;22.550;2023-03-01T01:30:42;57.00;48.00;30.50
72854;PMS7003;60991;51.278;22.550;2023-03-01T01:32:12;61.25;48.50;31.50
72854;PMS7003;60991;51.278;22.550;2023-03-01T01:33:42;61.00;45.33;30.00
72854;PMS7003;60991;51.278;22.550;2023-03-01T01:35:13;74.00;50.50;31.00
72854;PMS7003;60991;51.278;22.550;2023-03-01T01:36:43;62.33;45.00;29.33
72854;PMS7003;60991;51.278;22.550;2023-03-01T01:38:18;64.50;52.00;31.00
72854;PMS7003;60991;51.278;22.550;2023-03-01T01:39:48;70.00;54.00;33.00
72854;PMS7003;60991;51.278;22.550;2023-03-01T01:41:19;58.33;48.00;28.33
72854;PMS7003;60991;51.278;22.550;2023-03-01T01:42:50;74.25;52.50;30.00
72854;PMS7003;60991;51.278;22.550;2023-03-01T01:44:22;69.67;55.67;31.67
72854;PMS7003;60991;51.278;22.550;2023-03-01T01:45:56;71.25;51.50;30.50
72854;PMS7003;60991;51.278;22.550;2023-03-01T01:47:31;73.50;52.50;33.25
72854;PMS7003;60991;51.278;22.550;2023-03-01T01:49:02;65.00;48.00;29.50
72854;PMS7003;60991;51.278;22.550;2023-03-01T01:50:35;60.75;46.50;32.00
72854;PMS7003;60991;51.278;22.550;2023-03-01T01:52:11;70.00;48.75;30.75
72854;PMS7003;60991;51.278;22.550;2023-03-01T01:53:47;73.75;48.75;27.00
72854;PMS7003;60991;51.278;22.550;2023-03-01T01:55:23;63.25;48.00;32.50
72854;PMS7003;60991;51.278;22.550;2023-03-01T01:56:59;57.25;47.50;30.00
72854;PMS7003;60991;51.278;22.550;2023-03-01T01:58:33;60.75;47.00;30.75
72854;PMS7003;60991;51.278;22.550;2023-03-01T02:00:05;66.75;51.75;30.00
72854;PMS7003;60991;51.278;22.550;2023-03-01T02:01:38;58.00;48.25;30.50
72854;PMS7003;60991;51.278;22.550;2023-03-01T02:03:13;60.25;45.00;33.00
72854;PMS7003;60991;51.278;22.550;2023-03-01T02:04:47;57.75;46.00;30.00
72854;PMS7003;60991;51.278;22.550;2023-03-01T02:08:12;55.25;47.00;29.50
72854;PMS7003;60991;51.278;22.550;2023-03-01T02:09:45;57.50;49.00;30.00
72854;PMS7003;60991;51.278;22.550;2023-03-01T02:11:17;63.25;52.00;30.00
72854;PMS7003;60991;51.278;22.550;2023-03-01T02:12:48;61.50;49.25;30.75
72854;PMS7003;60991;51.278;22.550;2023-03-01T02:14:20;69.25;48.25;30.00
72854;PMS7003;60991;51.278;22.550;2023-03-01T02:15:51;63.75;47.50;32.25
72854;PMS7003;60991;51.278;22.550;2023-03-01T02:17:21;62.75;48.00;33.00
72854;PMS7003;60991;51.278;22.550;2023-03-01T02:18:52;44.50;40.00;22.25
72854;PMS7003;60991;51.278;22.550;2023-03-01T02:20:33;65.50;48.75;31.00
72854;PMS7003;60991;51.278;22.550;2023-03-01T02:22:24;58.50;49.50;30.00
72854;PMS7003;60991;51.278;22.550;2023-03-01T02:23:59;78.50;46.00;27.00
72854;PMS7003;60991;51.278;22.550;2023-03-01T02:27:59;63.75;51.75;32.50
72854;PMS7003;60991;51.278;22.550;2023-03-01T02:29:30;62.00;51.00;31.00
72854;PMS7003;60991;51.278;22.550;2023-03-01T02:31:00;58.00;45.75;30.00
72854;PMS7003;60991;51.278;22.550;2023-03-01T02:32:32;53.00;41.00;27.25
72854;PMS7003;60991;51.278;22.550;2023-03-01T02:34:03;64.75;48.75;29.50
72854;PMS7003;60991;51.278;22.550;2023-03-01T02:35:37;42.25;35.75;23.75
72854;PMS7003;60991;51.278;22.550;2023-03-01T02:37:10;54.75;44.50;28.00
72854;PMS7003;60991;51.278;22.550;2023-03-01T02:38:45;60.75;48.00;30.25
72854;PMS7003;60991;51.278;22.550;2023-03-01T02:40:18;51.00;44.50;30.00
72854;PMS7003;60991;51.278;22.550;2023-03-01T02:41:52;45.00;41.25;21.50
72854;PMS7003;60991;51.278;22.550;2023-03-01T02:43:26;58.00;40.50;29.50
72854;PMS7003;60991;51.278;22.550;2023-03-01T02:45:01;56.25;45.75;28.00
72854;PMS7003;60991;51.278;22.550;2023-03-01T02:46:31;67.75;48.75;28.00
72854;PMS7003;60991;51.278;22.550;2023-03-01T02:48:01;69.33;43.67;24.67
72854;PMS7003;60991;51.278;22.550;2023-03-01T02:49:33;59.33;48.33;31.67
72854;PMS7003;60991;51.278;22.550;2023-03-01T02:54:58;58.50;45.25;26.00
72854;PMS7003;60991;51.278;22.550;2023-03-01T02:56:35;59.50;44.75;30.00
72854;PMS7003;60991;51.278;22.550;2023-03-01T02:58:05;56.00;45.00;29.25
72854;PMS7003;60991;51.278;22.550;2023-03-01T02:59:36;57.25;44.50;27.00
72854;PMS7003;60991;51.278;22.550;2023-03-01T03:01:08;43.25;35.50;23.50
72854;PMS7003;60991;51.278;22.550;2023-03-01T03:02:38;54.33;44.33;27.33
72854;PMS7003;60991;51.278;22.550;2023-03-01T03:04:10;58.00;45.67;28.00
72854;PMS7003;60991;51.278;22.550;2023-03-01T03:05:43;62.25;48.00;27.00
72854;PMS7003;60991;51.278;22.550;2023-03-01T03:07:13;56.33;44.33;25.67
72854;PMS7003;60991;51.278;22.550;2023-03-01T03:08:43;56.33;44.00;24.67
72854;PMS7003;60991;51.278;22.550;2023-03-01T03:10:15;59.33;45.00;27.00
72854;PMS7003;60991;51.278;22.550;2023-03-01T03:12:05;58.75;44.50;30.00
72854;PMS7003;60991;51.278;22.550;2023-03-01T03:13:36;52.67;37.00;23.33
72854;PMS7003;60991;51.278;22.550;2023-03-01T03:15:06;69.67;45.00;29.33
72854;PMS7003;60991;51.278;22.550;2023-03-01T03:16:48;52.75;45.50;30.00
72854;PMS7003;60991;51.278;22.550;2023-03-01T03:18:19;58.00;43.25;28.50
72854;PMS7003;60991;51.278;22.550;2023-03-01T03:19:50;56.50;43.50;24.25
72854;PMS7003;60991;51.278;22.550;2023-03-01T03:21:20;65.75;48.25;30.75
72854;PMS7003;60991;51.278;22.550;2023-03-01T03:22:57;47.33;42.00;27.67
72854;PMS7003;60991;51.278;22.550;2023-03-01T03:24:32;52.00;42.75;27.00
72854;PMS7003;60991;51.278;22.550;2023-03-01T03:26:03;49.67;45.00;28.00
72854;PMS7003;60991;51.278;22.550;2023-03-01T03:27:34;56.75;46.50;28.00
72854;PMS7003;60991;51.278;22.550;2023-03-01T03:29:05;60.67;47.33;30.00
72854;PMS7003;60991;51.278;22.550;2023-03-01T03:30:36;63.33;48.67;30.00
72854;PMS7003;60991;51.278;22.550;2023-03-01T03:32:08;48.50;35.25;24.00
72854;PMS7003;60991;51.278;22.550;2023-03-01T03:33:38;58.67;45.33;27.67
72854;PMS7003;60991;51.278;22.550;2023-03-01T03:35:09;53.33;45.00;29.33
72854;PMS7003;60991;51.278;22.550;2023-03-01T03:36:39;49.75;42.50;29.50
72854;PMS7003;60991;51.278;22.550;2023-03-01T03:38:10;52.00;45.00;28.00
72854;PMS7003;60991;51.278;22.550;2023-03-01T03:39:43;59.25;46.50;29.50
72854;PMS7003;60991;51.278;22.550;2023-03-01T03:41:13;62.33;50.67;30.33
72854;PMS7003;60991;51.278;22.550;2023-03-01T03:42:43;58.25;47.00;27.25
72854;PMS7003;60991;51.278;22.550;2023-03-01T03:44:13;63.33;50.00;30.33
72854;PMS7003;60991;51.278;22.550;2023-03-01T03:45:44;44.67;40.00;25.67
72854;PMS7003;60991;51.278;22.550;2023-03-01T03:47:15;64.00;49.25;27.75
72854;PMS7003;60991;51.278;22.550;2023-03-01T03:48:46;49.33;44.33;25.33
72854;PMS7003;60991;51.278;22.550;2023-03-01T03:50:16;61.00;49.25;29.00
72854;PMS7003;60991;51.278;22.550;2023-03-01T03:51:47;64.25;52.50;32.00
72854;PMS7003;60991;51.278;22.550;2023-03-01T03:53:18;63.00;49.67;33.00
72854;PMS7003;60991;51.278;22.550;2023-03-01T03:54:49;61.75;47.75;30.75
72854;PMS7003;60991;51.278;22.550;2023-03-01T03:56:19;57.00;45.00;30.00
72854;PMS7003;60991;51.278;22.550;2023-03-01T03:57:49;67.00;48.00;30.00
72854;PMS7003;60991;51.278;22.550;2023-03-01T03:59:20;69.00;51.00;32.33
72854;PMS7003;60991;51.278;22.550;2023-03-01T04:00:54;68.00;52.67;30.00
72854;PMS7003;60991;51.278;22.550;2023-03-01T04:02:26;59.25;48.00;29.50
72854;PMS7003;60991;51.278;22.550;2023-03-01T04:03:56;55.00;47.33;33.00
72854;PMS7003;60991;51.278;22.550;2023-03-01T04:05:26;69.33;52.00;33.00
72854;PMS7003;60991;51.278;22.550;2023-03-01T04:06:57;76.25;55.25;32.50
72854;PMS7003;60991;51.278;22.550;2023-03-01T04:08:27;59.67;45.33;25.00
72854;PMS7003;60991;51.278;22.550;2023-03-01T04:09:58;64.00;48.50;30.25
72854;PMS7003;60991;51.278;22.550;2023-03-01T04:11:28;70.00;51.67;30.00
72854;PMS7003;60991;51.278;22.550;2023-03-01T04:12:58;64.67;48.67;30.00
72854;PMS7003;60991;51.278;22.550;2023-03-01T04:14:29;51.25;40.75;28.75
72854;PMS7003;60991;51.278;22.550;2023-03-01T04:15:59;70.33;54.00;34.00
72854;PMS7003;60991;51.278;22.550;2023-03-01T04:17:29;55.67;40.67;27.00
72854;PMS7003;60991;51.278;22.550;2023-03-01T04:18:59;58.00;48.00;30.00
72854;PMS7003;60991;51.278;22.550;2023-03-01T04:20:31;58.33;47.00;30.00
72854;PMS7003;60991;51.278;22.550;2023-03-01T04:22:04;59.75;48.25;30.75
72854;PMS7003;60991;51.278;22.550;2023-03-01T04:23:34;68.25;51.50;33.50
72854;PMS7003;60991;51.278;22.550;2023-03-01T04:25:04;65.50;47.75;30.00
72854;PMS7003;60991;51.278;22.550;2023-03-01T04:26:35;55.00;48.75;30.25
72854;PMS7003;60991;51.278;22.550;2023-03-01T04:28:05;69.67;53.33;30.00
72854;PMS7003;60991;51.278;22.550;2023-03-01T04:29:36;62.25;51.00;30.50
72854;PMS7003;60991;51.278;22.550;2023-03-01T04:31:07;59.67;46.67;25.67
72854;PMS7003;60991;51.278;22.550;2023-03-01T04:32:44;73.25;56.00;30.00
72854;PMS7003;60991;51.278;22.550;2023-03-01T04:34:15;68.67;53.33;30.67
72854;PMS7003;60991;51.278;22.550;2023-03-01T04:35:45;59.67;48.67;32.33
72854;PMS7003;60991;51.278;22.550;2023-03-01T04:37:15;72.00;50.50;33.00
72854;PMS7003;60991;51.278;22.550;2023-03-01T04:38:46;65.00;47.67;30.00
72854;PMS7003;60991;51.278;22.550;2023-03-01T04:40:16;62.00;49.75;33.00
72854;PMS7003;60991;51.278;22.550;2023-03-01T04:41:46;64.33;51.33;32.33
72854;PMS7003;60991;51.278;22.550;2023-03-01T04:43:17;73.75;50.00;30.75
72854;PMS7003;60991;51.278;22.550;2023-03-01T04:44:47;68.67;47.67;30.33
72854;PMS7003;60991;51.278;22.550;2023-03-01T04:46:18;62.67;48.33;30.00
72854;PMS7003;60991;51.278;22.550;2023-03-01T04:47:50;47.50;37.50;22.50
72854;PMS7003;60991;51.278;22.550;2023-03-01T04:49:20;63.67;48.00;30.00
72854;PMS7003;60991;51.278;22.550;2023-03-01T04:50:50;54.67;47.00;30.00
72854;PMS7003;60991;51.278;22.550;2023-03-01T04:52:20;55.33;48.00;27.67
72854;PMS7003;60991;51.278;22.550;2023-03-01T04:53:51;56.67;48.00;30.00
72854;PMS7003;60991;51.278;22.550;2023-03-01T04:55:21;60.67;48.67;30.00
72854;PMS7003;60991;51.278;22.550;2023-03-01T04:56:51;69.00;49.33;30.00
72854;PMS7003;60991;51.278;22.550;2023-03-01T04:58:25;50.67;44.33;27.00
72854;PMS7003;60991;51.278;22.550;2023-03-01T04:59:56;61.50;47.50;27.50
72854;PMS7003;60991;51.278;22.550;2023-03-01T05:01:26;64.00;45.00;30.33
72854;PMS7003;60991;51.278;22.550;2023-03-01T05:02:58;60.67;49.67;26.67
72854;PMS7003;60991;51.278;22.550;2023-03-01T05:04:30;62.75;43.50;30.00
72854;PMS7003;60991;51.278;22.550;2023-03-01T05:06:00;64.00;48.75;30.25
72854;PMS7003;60991;51.278;22.550;2023-03-01T05:07:30;60.67;48.00;30.33
72854;PMS7003;60991;51.278;22.550;2023-03-01T05:09:00;65.00;45.00;30.00
72854;PMS7003;60991;51.278;22.550;2023-03-01T05:10:32;61.67;50.33;27.00
72854;PMS7003;60991;51.278;22.550;2023-03-01T05:12:04;66.75;47.50;26.00
72854;PMS7003;60991;51.278;22.550;2023-03-01T05:13:35;67.75;50.25;31.25
72854;PMS7003;60991;51.278;22.550;2023-03-01T05:15:07;68.50;51.75;32.00
72854;PMS7003;60991;51.278;22.550;2023-03-01T05:16:37;62.75;45.00;28.00
72854;PMS7003;60991;51.278;22.550;2023-03-01T05:18:07;58.00;48.00;29.33
72854;PMS7003;60991;51.278;22.550;2023-03-01T05:19:37;48.00;45.67;31.67
72854;PMS7003;60991;51.278;22.550;2023-03-01T05:21:12;62.67;48.00;31.00
72854;PMS7003;60991;51.278;22.550;2023-03-01T05:22:43;41.50;36.25;26.00
72854;PMS7003;60991;51.278;22.550;2023-03-01T05:24:14;60.00;40.67;27.67
72854;PMS7003;60991;51.278;22.550;2023-03-01T05:25:44;59.00;46.00;30.00
72854;PMS7003;60991;51.278;22.550;2023-03-01T05:27:14;59.00;46.50;29.50
72854;PMS7003;60991;51.278;22.550;2023-03-01T05:28:45;57.50;47.75;27.75
72854;PMS7003;60991;51.278;22.550;2023-03-01T05:30:15;64.00;42.33;24.67
72854;PMS7003;60991;51.278;22.550;2023-03-01T05:31:46;47.00;42.50;29.50
72854;PMS7003;60991;51.278;22.550;2023-03-01T05:33:16;51.67;45.00;27.00
72854;PMS7003;60991;51.278;22.550;2023-03-01T05:34:47;55.50;39.50;20.00
72854;PMS7003;60991;51.278;22.550;2023-03-01T05:36:17;68.33;48.00;28.33
72854;PMS7003;60991;51.278;22.550;2023-03-01T05:37:47;58.33;48.67;29.33
72854;PMS7003;60991;51.278;22.550;2023-03-01T05:39:19;45.75;39.25;27.00
72854;PMS7003;60991;51.278;22.550;2023-03-01T05:40:50;53.75;43.00;24.00
72854;PMS7003;60991;51.278;22.550;2023-03-01T05:42:20;48.00;42.67;22.67
72854;PMS7003;60991;51.278;22.550;2023-03-01T05:43:51;52.50;44.75;27.75
72854;PMS7003;60991;51.278;22.550;2023-03-01T05:45:21;53.33;46.00;30.33
72854;PMS7003;60991;51.278;22.550;2023-03-01T05:46:53;51.75;45.50;30.00
72854;PMS7003;60991;51.278;22.550;2023-03-01T05:49:08;56.25;47.00;28.50
72854;PMS7003;60991;51.278;22.550;2023-03-01T05:50:21;45.00;42.50;26.75
72854;PMS7003;60991;51.278;22.550;2023-03-01T05:51:56;57.00;43.50;29.00
72854;PMS7003;60991;51.278;22.550;2023-03-01T05:53:26;65.00;51.33;32.33
72854;PMS7003;60991;51.278;22.550;2023-03-01T05:54:56;63.33;48.33;30.00
72854;PMS7003;60991;51.278;22.550;2023-03-01T05:56:26;40.67;28.00;23.00
72854;PMS7003;60991;51.278;22.550;2023-03-01T05:58:00;68.33;52.00;33.00
72854;PMS7003;60991;51.278;22.550;2023-03-01T05:59:32;66.25;51.25;30.00
72854;PMS7003;60991;51.278;22.550;2023-03-01T06:01:02;73.33;54.33;33.00
72854;PMS7003;60991;51.278;22.550;2023-03-01T06:02:32;64.67;48.00;30.00
72854;PMS7003;60991;51.278;22.550;2023-03-01T06:04:03;67.00;50.67;32.33
72854;PMS7003;60991;51.278;22.550;2023-03-01T06:05:34;61.25;47.50;28.00
72854;PMS7003;60991;51.278;22.550;2023-03-01T06:07:04;65.00;49.00;30.67
72854;PMS7003;60991;51.278;22.550;2023-03-01T06:08:34;66.00;50.33;33.00
72854;PMS7003;60991;51.278;22.550;2023-03-01T06:10:05;69.33;48.67;30.00
72854;PMS7003;60991;51.278;22.550;2023-03-01T06:11:36;54.50;47.50;30.00
72854;PMS7003;60991;51.278;22.550;2023-03-01T06:13:07;58.00;44.50;22.00
72854;PMS7003;60991;51.278;22.550;2023-03-01T06:14:37;56.67;46.67;31.00
72854;PMS7003;60991;51.278;22.550;2023-03-01T06:16:07;67.33;53.67;31.33
72854;PMS7003;60991;51.278;22.550;2023-03-01T06:17:38;75.50;52.00;33.00
72854;PMS7003;60991;51.278;22.550;2023-03-01T06:19:10;68.25;54.50;31.50
72854;PMS7003;60991;51.278;22.550;2023-03-01T06:20:40;71.33;51.00;31.67
72854;PMS7003;60991;51.278;22.550;2023-03-01T06:22:10;72.75;54.25;32.00
72854;PMS7003;60991;51.278;22.550;2023-03-01T06:23:41;61.67;48.67;33.00
72854;PMS7003;60991;51.278;22.550;2023-03-01T06:25:12;69.67;56.00;34.00
72854;PMS7003;60991;51.278;22.550;2023-03-01T06:26:44;66.00;51.75;27.00
72854;PMS7003;60991;51.278;22.550;2023-03-01T06:28:14;63.67;48.67;33.00
72854;PMS7003;60991;51.278;22.550;2023-03-01T06:29:45;68.25;50.25;32.00
72854;PMS7003;60991;51.278;22.550;2023-03-01T06:31:15;69.67;51.33;33.00
72854;PMS7003;60991;51.278;22.550;2023-03-01T06:32:46;71.25;51.50;30.00
72854;PMS7003;60991;51.278;22.550;2023-03-01T06:34:16;78.50;58.00;34.00
72854;PMS7003;60991;51.278;22.550;2023-03-01T06:35:49;69.67;53.33;33.00
72854;PMS7003;60991;51.278;22.550;2023-03-01T06:37:19;73.25;56.50;33.50
72854;PMS7003;60991;51.278;22.550;2023-03-01T06:38:49;72.67;52.67;30.00
72854;PMS7003;60991;51.278;22.550;2023-03-01T06:40:19;72.67;52.00;33.00
72854;PMS7003;60991;51.278;22.550;2023-03-01T06:41:50;55.67;48.00;31.00
72854;PMS7003;60991;51.278;22.550;2023-03-01T06:43:20;67.67;53.33;33.67
72854;PMS7003;60991;51.278;22.550;2023-03-01T06:44:51;66.75;51.00;33.00
72854;PMS7003;60991;51.278;22.550;2023-03-01T06:46:21;71.67;54.00;34.00
72854;PMS7003;60991;51.278;22.550;2023-03-01T06:47:51;68.67;56.33;33.67
72854;PMS7003;60991;51.278;22.550;2023-03-01T06:49:21;74.00;51.67;34.00
72854;PMS7003;60991;51.278;22.550;2023-03-01T06:50:52;64.67;49.33;30.00
72854;PMS7003;60991;51.278;22.550;2023-03-01T06:52:22;67.00;50.67;33.00
72854;PMS7003;60991;51.278;22.550;2023-03-01T06:53:52;65.00;49.00;30.00
72854;PMS7003;60991;51.278;22.550;2023-03-01T06:55:22;59.00;50.33;33.33
72854;PMS7003;60991;51.278;22.550;2023-03-01T06:56:52;73.25;57.00;35.00
72854;PMS7003;60991;51.278;22.550;2023-03-01T06:58:23;75.33;52.00;33.67
72854;PMS7003;60991;51.278;22.550;2023-03-01T06:59:53;73.00;54.75;33.75
72854;PMS7003;60991;51.278;22.550;2023-03-01T07:01:23;73.00;58.00;33.67
72854;PMS7003;60991;51.278;22.550;2023-03-01T07:02:53;69.00;52.67;33.00
72854;PMS7003;60991;51.278;22.550;2023-03-01T07:04:24;75.25;57.75;33.00
72854;PMS7003;60991;51.278;22.550;2023-03-01T07:05:54;75.33;54.33;34.00
72854;PMS7003;60991;51.278;22.550;2023-03-01T07:07:24;65.00;53.33;34.00
72854;PMS7003;60991;51.278;22.550;2023-03-01T07:08:55;52.25;41.50;15.00
72854;PMS7003;60991;51.278;22.550;2023-03-01T07:10:25;76.75;57.25;32.50
72854;PMS7003;60991;51.278;22.550;2023-03-01T07:11:56;70.00;54.33;33.33
72854;PMS7003;60991;51.278;22.550;2023-03-01T07:13:27;56.00;46.00;33.50
72854;PMS7003;60991;51.278;22.550;2023-03-01T07:14:57;65.00;51.75;33.50
72854;PMS7003;60991;51.278;22.550;2023-03-01T07:16:27;59.00;49.00;30.00
72854;PMS7003;60991;51.278;22.550;2023-03-01T07:17:58;59.67;48.33;33.00
72854;PMS7003;60991;51.278;22.550;2023-03-01T07:19:28;55.00;48.00;23.33
72854;PMS7003;60991;51.278;22.550;2023-03-01T07:20:58;65.50;48.25;30.00
72854;PMS7003;60991;51.278;22.550;2023-03-01T07:22:33;66.50;50.75;33.50
72854;PMS7003;60991;51.278;22.550;2023-03-01T07:24:05;66.75;49.00;29.50
72854;PMS7003;60991;51.278;22.550;2023-03-01T07:25:36;60.75;48.50;29.00
72854;PMS7003;60991;51.278;22.550;2023-03-01T07:27:07;66.00;50.00;31.67
72854;PMS7003;60991;51.278;22.550;2023-03-01T07:28:37;63.67;48.33;30.00
72854;PMS7003;60991;51.278;22.550;2023-03-01T07:30:07;61.33;49.00;30.33
72854;PMS7003;60991;51.278;22.550;2023-03-01T07:31:38;63.75;50.50;30.75
72854;PMS7003;60991;51.278;22.550;2023-03-01T07:33:08;70.33;49.00;29.33
72854;PMS7003;60991;51.278;22.550;2023-03-01T07:34:38;68.00;51.33;32.33
72854;PMS7003;60991;51.278;22.550;2023-03-01T07:36:09;65.67;49.67;31.00
72854;PMS7003;60991;51.278;22.550;2023-03-01T07:37:39;65.50;51.00;33.00
72854;PMS7003;60991;51.278;22.550;2023-03-01T07:39:10;69.00;48.00;32.67
72854;PMS7003;60991;51.278;22.550;2023-03-01T07:40:41;65.00;48.75;29.75
72854;PMS7003;60991;51.278;22.550;2023-03-01T07:42:11;69.67;53.33;30.00
72854;PMS7003;60991;51.278;22.550;2023-03-01T07:43:41;57.33;46.67;31.33
72854;PMS7003;60991;51.278;22.550;2023-03-01T07:45:11;51.67;46.67;31.67
72854;PMS7003;60991;51.278;22.550;2023-03-01T07:46:42;61.25;48.25;28.00
72854;PMS7003;60991;51.278;22.550;2023-03-01T07:48:12;59.25;46.50;30.00
72854;PMS7003;60991;51.278;22.550;2023-03-01T07:49:42;58.67;48.67;30.00
72854;PMS7003;60991;51.278;22.550;2023-03-01T07:51:12;65.67;45.67;30.00
72854;PMS7003;60991;51.278;22.550;2023-03-01T07:52:46;64.00;49.00;28.50
72854;PMS7003;60991;51.278;22.550;2023-03-01T07:54:18;52.00;42.50;30.00
72854;PMS7003;60991;51.278;22.550;2023-03-01T07:55:48;63.50;48.25;30.75
72854;PMS7003;60991;51.278;22.550;2023-03-01T07:57:19;64.00;45.33;28.00
72854;PMS7003;60991;51.278;22.550;2023-03-01T07:58:49;58.25;48.00;30.00
72854;PMS7003;60991;51.278;22.550;2023-03-01T08:00:19;61.75;47.50;29.25
72854;PMS7003;60991;51.278;22.550;2023-03-01T08:01:50;52.00;42.25;28.75
72854;PMS7003;60991;51.278;22.550;2023-03-01T08:03:20;59.00;45.00;28.00
72854;PMS7003;60991;51.278;22.550;2023-03-01T08:04:50;58.00;48.00;30.00
72854;PMS7003;60991;51.278;22.550;2023-03-01T08:06:20;57.00;46.33;29.33
72854;PMS7003;60991;51.278;22.550;2023-03-01T08:07:51;54.33;45.00;27.00
72854;PMS7003;60991;51.278;22.550;2023-03-01T08:09:21;49.00;42.33;25.33
72854;PMS7003;60991;51.278;22.550;2023-03-01T08:10:52;56.75;43.25;26.25
72854;PMS7003;60991;51.278;22.550;2023-03-01T08:12:22;58.25;48.50;29.25
72854;PMS7003;60991;51.278;22.550;2023-03-01T08:13:52;56.00;46.67;27.67
72854;PMS7003;60991;51.278;22.550;2023-03-01T08:15:23;52.75;44.50;25.00
72854;PMS7003;60991;51.278;22.550;2023-03-01T08:16:53;55.67;41.33;26.33
72854;PMS7003;60991;51.278;22.550;2023-03-01T08:18:24;42.67;32.67;25.00
72854;PMS7003;60991;51.278;22.550;2023-03-01T08:19:55;46.75;39.50;27.00
72854;PMS7003;60991;51.278;22.550;2023-03-01T08:21:25;46.67;38.00;22.33
72854;PMS7003;60991;51.278;22.550;2023-03-01T08:22:57;42.50;40.50;27.00
72854;PMS7003;60991;51.278;22.550;2023-03-01T08:24:27;51.75;41.25;27.25
72854;PMS7003;60991;51.278;22.550;2023-03-01T08:26:14;40.25;37.25;24.00
72854;PMS7003;60991;51.278;22.550;2023-03-01T08:27:46;55.50;41.00;25.00
72854;PMS7003;60991;51.278;22.550;2023-03-01T08:29:19;53.00;45.00;28.75
72854;PMS7003;60991;51.278;22.550;2023-03-01T08:30:50;47.75;41.50;25.50
72854;PMS7003;60991;51.278;22.550;2023-03-01T08:32:20;49.33;39.33;25.00
72854;PMS7003;60991;51.278;22.550;2023-03-01T08:33:51;59.50;42.50;26.25